createdAt,value
2023-05-19T00:02:05.959Z,6.10
2023-05-19T00:04:33.532Z,6.10
2023-05-19T00:07:01.353Z,6.00
2023-05-19T00:09:28.415Z,6.00
2023-05-19T00:11:56.618Z,6.10
2023-05-19T00:14:24.496Z,6.00
2023-05-19T00:16:51.428Z,6.00
2023-05-19T00:19:18.825Z,5.90
2023-05-19T00:21:45.552Z,5.90
2023-05-19T00:24:13.076Z,5.80
2023-05-19T00:26:39.667Z,5.80
2023-05-19T00:29:06.338Z,5.80
2023-05-19T00:31:34.069Z,5.70
2023-05-19T00:34:01.242Z,5.60
2023-05-19T00:36:27.907Z,5.60
2023-05-19T00:38:54.616Z,5.60
2023-05-19T00:41:21.313Z,5.60
2023-05-19T00:43:47.986Z,5.60
2023-05-19T00:46:14.777Z,5.60
2023-05-19T00:48:44.567Z,5.50
2023-05-19T00:51:14.662Z,5.40
2023-05-19T00:53:41.467Z,5.40
2023-05-19T00:56:08.189Z,5.30
2023-05-19T00:58:36.064Z,5.30
2023-05-19T01:01:04.418Z,5.20
2023-05-19T01:03:35.038Z,5.20
2023-05-19T01:06:05.111Z,5.20
2023-05-19T01:08:33.048Z,5.20
2023-05-19T01:11:00.088Z,5.20
2023-05-19T01:13:28.726Z,5.30
2023-05-19T01:16:07.518Z,5.30
2023-05-19T01:18:47.297Z,5.30
2023-05-19T01:21:36.791Z,5.20
2023-05-19T01:24:24.273Z,5.20
2023-05-19T01:27:20.332Z,5.20
2023-05-19T01:30:11.772Z,5.10
2023-05-19T01:32:41.995Z,5.00
2023-05-19T01:35:10.303Z,5.00
2023-05-19T01:37:38.969Z,5.00
2023-05-19T01:40:07.915Z,5.00
2023-05-19T01:42:37.768Z,5.00
2023-05-19T01:45:10.567Z,4.90
2023-05-19T01:47:39.750Z,5.00
2023-05-19T01:50:07.009Z,5.00
2023-05-19T01:52:33.756Z,5.00
2023-05-19T01:55:00.455Z,4.90
2023-05-19T01:57:32.506Z,4.80
2023-05-19T02:00:10.414Z,4.80
2023-05-19T02:03:02.187Z,4.70
2023-05-19T02:05:56.829Z,4.70
2023-05-19T02:08:26.966Z,4.60
2023-05-19T02:11:15.214Z,4.60
2023-05-19T02:13:46.697Z,4.60
2023-05-19T02:16:13.884Z,4.60
2023-05-19T02:18:45.379Z,4.60
2023-05-19T02:21:13.473Z,4.50
2023-05-19T02:23:41.870Z,4.50
2023-05-19T02:26:08.739Z,4.40
2023-05-19T02:28:36.586Z,4.40
2023-05-19T02:31:06.308Z,4.40
2023-05-19T02:33:32.922Z,4.40
2023-05-19T02:35:59.539Z,4.40
2023-05-19T02:38:26.351Z,4.30
2023-05-19T02:40:54.010Z,4.20
2023-05-19T02:43:20.642Z,4.10
2023-05-19T02:45:47.331Z,4.10
2023-05-19T02:48:13.993Z,4.10
2023-05-19T02:50:40.763Z,4.10
2023-05-19T02:53:07.445Z,4.10
2023-05-19T02:55:34.088Z,4.20
2023-05-19T02:58:00.697Z,4.20
2023-05-19T03:00:27.314Z,4.10
2023-05-19T03:02:54.096Z,4.00
2023-05-19T03:05:20.817Z,4.10
2023-05-19T03:07:47.558Z,4.10
2023-05-19T03:10:14.176Z,4.00
2023-05-19T03:12:40.998Z,4.00
2023-05-19T03:15:08.545Z,3.90
2023-05-19T03:17:40.761Z,3.90
2023-05-19T03:20:08.160Z,3.90
2023-05-19T03:22:35.564Z,3.90
2023-05-19T03:25:02.466Z,3.90
2023-05-19T03:27:31.346Z,3.90
2023-05-19T03:29:57.958Z,3.90
2023-05-19T03:32:24.739Z,3.80
2023-05-19T03:34:51.545Z,3.70
2023-05-19T03:37:18.186Z,3.70
2023-05-19T03:39:44.791Z,3.70
2023-05-19T03:42:11.434Z,3.80
2023-05-19T03:44:38.092Z,3.80
2023-05-19T03:47:04.968Z,3.70
2023-05-19T03:49:31.595Z,3.60
2023-05-19T03:51:58.304Z,3.70
2023-05-19T03:54:24.972Z,3.70
2023-05-19T03:56:52.006Z,3.60
2023-05-19T03:59:18.766Z,3.60
2023-05-19T04:01:46.385Z,3.60
2023-05-19T04:04:13.068Z,3.60
2023-05-19T04:06:39.734Z,3.60
2023-05-19T04:09:12.907Z,3.60
2023-05-19T04:11:40.362Z,3.70
2023-05-19T04:14:07.329Z,3.70
2023-05-19T04:16:34.255Z,3.70
2023-05-19T04:19:01.455Z,3.70
2023-05-19T04:21:28.152Z,3.80
2023-05-19T04:23:55.001Z,3.80
2023-05-19T04:26:22.557Z,3.80
2023-05-19T04:28:49.167Z,3.80
2023-05-19T04:31:16.031Z,3.80
2023-05-19T04:33:42.740Z,4.00
2023-05-19T04:36:10.774Z,4.10
2023-05-19T04:38:39.772Z,4.20
2023-05-19T04:41:10.084Z,4.10
2023-05-19T04:43:41.903Z,4.10
2023-05-19T04:46:13.237Z,4.20
2023-05-19T04:48:41.057Z,4.30
2023-05-19T04:51:07.763Z,4.40
2023-05-19T04:53:34.464Z,4.50
2023-05-19T04:56:02.021Z,4.60
2023-05-19T04:58:28.673Z,4.60
2023-05-19T05:00:56.011Z,4.70
2023-05-19T05:03:26.438Z,4.90
2023-05-19T05:05:54.411Z,5.00
2023-05-19T05:08:23.748Z,5.00
2023-05-19T05:10:54.537Z,5.10
2023-05-19T05:13:23.105Z,5.20
2023-05-19T05:15:50.142Z,5.20
2023-05-19T05:18:16.992Z,5.10
2023-05-19T05:20:44.350Z,5.20
2023-05-19T05:23:14.533Z,5.30
2023-05-19T05:25:41.966Z,5.70
2023-05-19T05:28:08.842Z,6.10
2023-05-19T05:30:35.874Z,6.50
2023-05-19T05:33:02.769Z,6.90
2023-05-19T05:35:29.867Z,7.50
2023-05-19T05:37:56.667Z,7.70
2023-05-19T05:40:23.338Z,8.50
2023-05-19T05:42:50.003Z,8.90
2023-05-19T05:45:16.819Z,9.30
2023-05-19T05:47:43.746Z,9.60
2023-05-19T05:50:11.465Z,9.70
2023-05-19T05:52:41.076Z,9.70
2023-05-19T05:55:08.435Z,9.80
2023-05-19T05:57:37.788Z,10.40
2023-05-19T06:00:07.772Z,10.80
2023-05-19T06:02:34.641Z,10.90
2023-05-19T06:05:02.399Z,11.00
2023-05-19T06:07:29.070Z,10.90
2023-05-19T06:09:56.742Z,11.20
2023-05-19T06:12:23.355Z,11.70
2023-05-19T06:14:49.985Z,12.40
2023-05-19T06:17:16.677Z,12.80
2023-05-19T06:19:44.426Z,13.00
2023-05-19T06:22:11.113Z,13.20
2023-05-19T06:24:39.476Z,13.60
2023-05-19T06:27:06.328Z,14.20
2023-05-19T06:29:32.947Z,14.70
2023-05-19T06:31:59.609Z,14.70
2023-05-19T06:34:26.843Z,14.70
2023-05-19T06:36:53.464Z,15.40
2023-05-19T06:39:20.100Z,16.50
2023-05-19T06:41:46.868Z,16.50
2023-05-19T06:44:13.489Z,16.60
2023-05-19T06:46:40.224Z,17.40
2023-05-19T06:49:06.927Z,18.00
2023-05-19T06:51:33.546Z,18.00
2023-05-19T06:54:00.178Z,18.80
2023-05-19T06:56:26.929Z,19.40
2023-05-19T06:58:53.655Z,19.20
2023-05-19T07:01:20.469Z,19.10
2023-05-19T07:03:47.552Z,18.90
2023-05-19T07:06:14.460Z,18.80
2023-05-19T07:08:41.147Z,19.40
2023-05-19T07:11:08.278Z,19.80
2023-05-19T07:13:34.978Z,20.10
2023-05-19T07:16:01.710Z,20.30
2023-05-19T07:18:31.729Z,20.30
2023-05-19T07:20:58.882Z,20.60
2023-05-19T07:23:25.534Z,20.90
2023-05-19T07:25:56.401Z,21.30
2023-05-19T07:28:23.397Z,21.60
2023-05-19T07:30:50.315Z,21.40
2023-05-19T07:33:17.096Z,21.20
2023-05-19T07:35:45.426Z,21.30
2023-05-19T07:38:12.189Z,22.00
2023-05-19T07:40:38.951Z,22.10
2023-05-19T07:43:05.659Z,22.10
2023-05-19T07:45:32.311Z,22.20
2023-05-19T07:47:59.012Z,22.40
2023-05-19T07:50:25.815Z,22.40
2023-05-19T07:52:52.512Z,22.70
2023-05-19T07:55:19.228Z,22.90
2023-05-19T07:57:45.894Z,22.90
2023-05-19T08:00:13.372Z,23.00
2023-05-19T08:02:41.997Z,23.30
2023-05-19T08:05:09.321Z,23.40
2023-05-19T08:07:36.379Z,24.00
2023-05-19T08:10:03.770Z,24.20
2023-05-19T08:12:30.397Z,24.00
2023-05-19T08:14:58.851Z,24.30
2023-05-19T08:17:27.119Z,23.90
2023-05-19T08:19:53.782Z,23.90
2023-05-19T08:22:20.484Z,24.60
2023-05-19T08:24:49.591Z,24.90
2023-05-19T08:27:17.449Z,24.90
2023-05-19T08:29:44.081Z,24.50
2023-05-19T08:32:13.041Z,24.40
2023-05-19T08:34:41.165Z,24.80
2023-05-19T08:37:08.275Z,25.60
2023-05-19T08:39:35.333Z,25.40
2023-05-19T08:42:02.429Z,25.50
2023-05-19T08:44:30.810Z,25.80
2023-05-19T08:47:02.545Z,26.10
2023-05-19T08:49:33.028Z,26.20
2023-05-19T08:52:16.847Z,26.20
2023-05-19T08:54:53.165Z,26.50
2023-05-19T08:57:21.015Z,25.50
2023-05-19T08:59:48.989Z,25.50
2023-05-19T09:02:16.278Z,26.20
2023-05-19T09:04:46.011Z,26.20
2023-05-19T09:07:15.010Z,26.50
2023-05-19T09:09:43.877Z,26.20
2023-05-19T09:12:14.246Z,27.00
2023-05-19T09:14:41.201Z,26.90
2023-05-19T09:17:07.902Z,26.10
2023-05-19T09:19:34.774Z,25.90
2023-05-19T09:22:05.254Z,25.90
2023-05-19T09:24:33.753Z,26.70
2023-05-19T09:27:00.640Z,26.80
2023-05-19T09:29:27.410Z,25.70
2023-05-19T09:32:00.399Z,24.60
2023-05-19T09:34:27.595Z,23.40
2023-05-19T09:36:54.402Z,22.30
2023-05-19T09:39:23.361Z,21.90
2023-05-19T09:41:54.857Z,21.30
2023-05-19T09:44:28.762Z,21.70
2023-05-19T09:46:56.254Z,22.20
2023-05-19T09:49:24.583Z,24.00
2023-05-19T09:51:57.309Z,25.70
2023-05-19T09:54:24.992Z,26.30
2023-05-19T09:56:59.020Z,26.70
2023-05-19T09:59:26.495Z,27.40
2023-05-19T10:01:57.423Z,27.50
2023-05-19T10:04:26.994Z,28.70
2023-05-19T10:06:55.256Z,28.60
2023-05-19T10:09:29.951Z,27.10
2023-05-19T10:11:58.786Z,24.80
2023-05-19T10:14:27.197Z,25.30
2023-05-19T10:16:58.881Z,26.50
2023-05-19T10:19:27.853Z,27.10
2023-05-19T10:21:55.135Z,27.20
2023-05-19T10:24:22.309Z,28.10
2023-05-19T10:27:04.959Z,28.70
2023-05-19T10:29:37.639Z,29.60
2023-05-19T10:32:12.061Z,28.90
2023-05-19T10:34:50.473Z,29.00
2023-05-19T10:37:45.516Z,29.70
2023-05-19T10:40:33.067Z,29.60
2023-05-19T10:43:32.132Z,29.20
2023-05-19T10:45:58.996Z,29.10
2023-05-19T10:48:25.792Z,29.30
2023-05-19T10:50:56.768Z,28.90
2023-05-19T10:53:31.305Z,28.90
2023-05-19T10:56:02.446Z,28.70
2023-05-19T10:58:43.952Z,29.20
2023-05-19T11:01:16.462Z,29.20
2023-05-19T11:03:52.269Z,29.20
2023-05-19T11:06:27.922Z,28.90
2023-05-19T11:08:58.870Z,30.00
2023-05-19T11:11:26.262Z,29.90
2023-05-19T11:13:56.551Z,30.10
2023-05-19T11:16:31.522Z,30.20
2023-05-19T11:19:01.657Z,29.90
2023-05-19T11:21:55.040Z,30.50
2023-05-19T11:24:45.743Z,30.20
2023-05-19T11:27:18.718Z,30.00
2023-05-19T11:29:45.808Z,30.60
2023-05-19T11:32:13.464Z,30.30
2023-05-19T11:34:40.449Z,30.80
2023-05-19T11:37:08.434Z,29.90
2023-05-19T11:39:35.339Z,29.30
2023-05-19T11:42:02.059Z,29.30
2023-05-19T11:44:28.768Z,29.50
2023-05-19T11:46:55.723Z,29.20
2023-05-19T11:49:22.495Z,27.90
2023-05-19T11:51:49.187Z,27.40
2023-05-19T11:54:16.486Z,28.10
2023-05-19T11:56:43.274Z,27.90
2023-05-19T11:59:10.006Z,28.10
2023-05-19T12:01:36.842Z,27.80
2023-05-19T12:04:09.744Z,27.40
2023-05-19T12:06:37.422Z,27.00
2023-05-19T12:09:05.514Z,26.10
2023-05-19T12:11:32.200Z,25.30
2023-05-19T12:13:59.184Z,25.30
2023-05-19T12:16:35.941Z,26.00
2023-05-19T12:19:06.455Z,26.50
2023-05-19T12:21:33.659Z,26.70
2023-05-19T12:24:01.941Z,27.20
2023-05-19T12:26:28.754Z,27.20
2023-05-19T12:28:55.381Z,26.70
2023-05-19T12:31:24.944Z,26.40
2023-05-19T12:33:51.919Z,26.40
2023-05-19T12:36:19.256Z,26.00
2023-05-19T12:38:47.653Z,26.30
2023-05-19T12:41:14.710Z,26.30
2023-05-19T12:43:41.421Z,26.10
2023-05-19T12:46:12.423Z,25.70
2023-05-19T12:48:46.784Z,25.10
2023-05-19T12:51:17.902Z,25.30
2023-05-19T12:53:45.876Z,25.10
2023-05-19T12:56:15.918Z,25.30
2023-05-19T12:58:43.954Z,25.90
2023-05-19T13:01:18.610Z,26.00
2023-05-19T13:03:46.005Z,25.50
2023-05-19T13:06:12.898Z,25.30
2023-05-19T13:08:40.174Z,25.70
2023-05-19T13:11:06.876Z,26.00
2023-05-19T13:13:33.672Z,26.50
2023-05-19T13:16:00.359Z,26.10
2023-05-19T13:18:27.612Z,25.30
2023-05-19T13:20:54.731Z,25.20
2023-05-19T13:23:21.574Z,25.10
2023-05-19T13:25:51.464Z,25.30
2023-05-19T13:28:18.120Z,24.90
2023-05-19T13:30:45.336Z,24.60
2023-05-19T13:33:12.204Z,24.00
2023-05-19T13:35:39.011Z,24.10
2023-05-19T13:38:07.757Z,24.40
2023-05-19T13:40:34.960Z,24.30
2023-05-19T13:43:02.789Z,24.00
2023-05-19T13:45:29.531Z,23.70
2023-05-19T13:47:56.834Z,23.40
2023-05-19T13:50:23.579Z,23.50
2023-05-19T13:52:50.234Z,23.40
2023-05-19T13:55:16.998Z,23.10
2023-05-19T13:57:44.321Z,23.10
2023-05-19T14:00:11.440Z,23.10
2023-05-19T14:02:38.282Z,23.30
2023-05-19T14:05:05.834Z,23.60
2023-05-19T14:07:34.643Z,23.50
2023-05-19T14:10:02.327Z,23.60
2023-05-19T14:12:38.043Z,23.40
2023-05-19T14:15:14.380Z,23.70
2023-05-19T14:17:41.173Z,23.90
2023-05-19T14:20:08.404Z,23.70
2023-05-19T14:22:35.162Z,23.60
2023-05-19T14:25:02.384Z,23.10
2023-05-19T14:27:29.197Z,22.90
2023-05-19T14:29:55.843Z,22.70
2023-05-19T14:32:22.581Z,22.70
2023-05-19T14:34:52.765Z,22.50
2023-05-19T14:37:20.086Z,22.40
2023-05-19T14:39:46.785Z,22.30
2023-05-19T14:42:13.495Z,22.40
2023-05-19T14:44:40.107Z,22.60
2023-05-19T14:47:07.419Z,22.70
2023-05-19T14:49:34.355Z,22.60
2023-05-19T14:52:01.207Z,22.50
2023-05-19T14:54:28.122Z,22.60
2023-05-19T14:56:55.159Z,22.50
2023-05-19T14:59:21.827Z,22.40
2023-05-19T15:01:48.629Z,22.40
2023-05-19T15:04:15.507Z,22.40
2023-05-19T15:06:42.358Z,22.50
2023-05-19T15:09:09.397Z,22.60
2023-05-19T15:11:36.046Z,22.60
2023-05-19T15:14:02.780Z,22.70
2023-05-19T15:16:29.634Z,22.60
2023-05-19T15:18:56.741Z,22.10
2023-05-19T15:21:23.520Z,22.00
2023-05-19T15:23:50.153Z,21.70
2023-05-19T15:26:17.000Z,21.80
2023-05-19T15:28:43.663Z,21.60
2023-05-19T15:31:10.535Z,21.20
2023-05-19T15:33:37.315Z,21.20
2023-05-19T15:36:04.184Z,21.10
2023-05-19T15:38:35.038Z,21.00
2023-05-19T15:41:06.872Z,21.10
2023-05-19T15:43:33.677Z,21.40
2023-05-19T15:46:00.888Z,21.60
2023-05-19T15:48:28.949Z,21.60
2023-05-19T15:50:58.260Z,21.70
2023-05-19T15:53:25.675Z,21.60
2023-05-19T15:55:52.347Z,21.40
2023-05-19T15:58:19.124Z,21.20
2023-05-19T16:00:45.949Z,20.80
2023-05-19T16:03:12.709Z,20.70
2023-05-19T16:05:39.453Z,20.70
2023-05-19T16:08:08.498Z,20.60
2023-05-19T16:10:35.741Z,20.50
2023-05-19T16:13:02.573Z,20.20
2023-05-19T16:15:29.286Z,20.10
2023-05-19T16:17:56.738Z,20.20
2023-05-19T16:20:26.760Z,20.40
2023-05-19T16:22:53.983Z,20.50
2023-05-19T16:25:20.745Z,20.60
2023-05-19T16:27:47.505Z,20.40
2023-05-19T16:30:14.253Z,20.40
2023-05-19T16:32:41.050Z,20.20
2023-05-19T16:35:08.145Z,20.20
2023-05-19T16:37:34.951Z,20.10
2023-05-19T16:40:01.860Z,20.00
2023-05-19T16:42:28.482Z,20.00
2023-05-19T16:44:55.217Z,20.00
2023-05-19T16:47:21.854Z,20.00
2023-05-19T16:49:48.490Z,20.00
2023-05-19T16:52:15.289Z,19.90
2023-05-19T16:54:41.994Z,19.90
2023-05-19T16:57:09.726Z,19.90
2023-05-19T16:59:36.374Z,19.90
2023-05-19T17:02:03.388Z,19.80
2023-05-19T17:04:30.873Z,19.70
2023-05-19T17:06:57.714Z,19.60
2023-05-19T17:09:26.166Z,19.60
2023-05-19T17:11:53.719Z,19.60
2023-05-19T17:14:20.835Z,19.70
2023-05-19T17:16:48.027Z,19.70
2023-05-19T17:19:16.065Z,19.70
2023-05-19T17:21:42.768Z,19.60
2023-05-19T17:24:09.450Z,19.60
2023-05-19T17:26:36.208Z,19.50
2023-05-19T17:29:02.869Z,19.50
2023-05-19T17:31:29.558Z,19.40
2023-05-19T17:33:56.191Z,19.40
2023-05-19T17:36:22.888Z,19.30
2023-05-19T17:38:49.497Z,19.40
2023-05-19T17:41:16.917Z,19.30
2023-05-19T17:43:43.891Z,19.20
2023-05-19T17:46:11.793Z,19.10
2023-05-19T17:48:39.851Z,19.20
2023-05-19T17:51:09.296Z,19.20
2023-05-19T17:53:36.574Z,19.30
2023-05-19T17:56:06.424Z,19.30
2023-05-19T17:58:33.276Z,19.40
2023-05-19T18:01:00.241Z,19.40
2023-05-19T18:03:27.228Z,19.30
2023-05-19T18:05:54.340Z,19.20
2023-05-19T18:08:21.314Z,19.30
2023-05-19T18:10:51.202Z,19.30
2023-05-19T18:13:17.916Z,19.20
2023-05-19T18:15:44.562Z,19.00
2023-05-19T18:18:11.622Z,18.90
2023-05-19T18:20:39.325Z,18.90
2023-05-19T18:23:06.268Z,18.80
2023-05-19T18:25:32.940Z,18.80
2023-05-19T18:27:59.580Z,18.80
2023-05-19T18:30:26.249Z,18.70
2023-05-19T18:32:53.059Z,18.70
2023-05-19T18:35:21.038Z,18.70
2023-05-19T18:37:47.680Z,18.60
2023-05-19T18:40:14.376Z,18.50
2023-05-19T18:42:41.019Z,18.40
2023-05-19T18:45:08.044Z,18.30
2023-05-19T18:47:34.741Z,18.20
2023-05-19T18:50:01.567Z,18.00
2023-05-19T18:52:29.015Z,17.90
2023-05-19T18:54:55.832Z,17.80
2023-05-19T18:57:22.469Z,17.70
2023-05-19T18:59:49.103Z,17.60
2023-05-19T19:02:15.721Z,17.50
2023-05-19T19:04:42.391Z,17.40
2023-05-19T19:07:09.095Z,17.20
2023-05-19T19:09:35.760Z,17.10
2023-05-19T19:12:02.834Z,17.00
2023-05-19T19:14:29.471Z,16.90
2023-05-19T19:16:56.473Z,16.80
2023-05-19T19:19:23.677Z,16.60
2023-05-19T19:21:50.616Z,16.50
2023-05-19T19:24:17.274Z,16.20
2023-05-19T19:26:43.931Z,16.00
2023-05-19T19:29:10.626Z,15.70
2023-05-19T19:31:37.306Z,15.30
2023-05-19T19:34:08.974Z,15.10
2023-05-19T19:36:36.717Z,14.90
2023-05-19T19:39:03.488Z,14.70
2023-05-19T19:41:30.497Z,14.30
2023-05-19T19:43:57.187Z,14.10
2023-05-19T19:46:23.876Z,14.00
2023-05-19T19:48:51.132Z,14.00
2023-05-19T19:51:17.834Z,13.90
2023-05-19T19:53:44.466Z,13.70
2023-05-19T19:56:11.241Z,13.60
2023-05-19T19:58:37.885Z,13.60
2023-05-19T20:01:06.038Z,13.50
2023-05-19T20:03:33.300Z,13.30
2023-05-19T20:06:00.202Z,13.30
2023-05-19T20:08:27.416Z,13.20
2023-05-19T20:10:54.322Z,13.20
2023-05-19T20:13:21.168Z,13.20
2023-05-19T20:15:48.034Z,13.20
2023-05-19T20:18:15.821Z,13.10
2023-05-19T20:20:42.907Z,12.90
2023-05-19T20:23:09.651Z,12.70
2023-05-19T20:25:54.795Z,12.70
2023-05-19T20:28:25.733Z,12.60
2023-05-19T20:30:52.412Z,12.60
2023-05-19T20:33:19.072Z,12.60
2023-05-19T20:35:45.823Z,12.40
2023-05-19T20:38:12.505Z,12.30
2023-05-19T20:40:39.187Z,12.20
2023-05-19T20:43:05.982Z,12.20
2023-05-19T20:45:32.954Z,12.20
2023-05-19T20:48:00.634Z,12.20
2023-05-19T20:50:27.407Z,12.20
2023-05-19T20:52:54.068Z,12.10
2023-05-19T20:55:21.148Z,12.10
2023-05-19T20:57:47.834Z,12.00
2023-05-19T21:00:14.763Z,12.00
2023-05-19T21:02:41.462Z,11.90
2023-05-19T21:05:08.521Z,11.90
2023-05-19T21:07:35.365Z,11.60
2023-05-19T21:10:02.194Z,11.50
2023-05-19T21:12:33.655Z,11.40
2023-05-19T21:15:01.524Z,11.30
2023-05-19T21:17:28.306Z,11.30
2023-05-19T21:19:57.956Z,11.30
2023-05-19T21:22:27.852Z,11.20
2023-05-19T21:24:54.872Z,11.20
2023-05-19T21:27:21.878Z,11.10
2023-05-19T21:29:53.338Z,11.10
2023-05-19T21:32:22.953Z,11.00
2023-05-19T21:34:49.650Z,11.00
2023-05-19T21:37:17.577Z,11.00
2023-05-19T21:39:44.473Z,10.90
2023-05-19T21:42:11.163Z,10.80
2023-05-19T21:44:38.381Z,10.80
2023-05-19T21:47:05.104Z,10.70
2023-05-19T21:49:31.795Z,10.60
2023-05-19T21:51:58.548Z,10.60
2023-05-19T21:54:25.276Z,10.50
2023-05-19T21:56:51.910Z,10.50
2023-05-19T21:59:19.458Z,10.40
2023-05-19T22:01:46.835Z,10.30
2023-05-19T22:04:15.453Z,10.30
2023-05-19T22:06:43.111Z,10.30
2023-05-19T22:09:10.167Z,10.30
2023-05-19T22:11:36.852Z,10.20
2023-05-19T22:14:03.494Z,10.10
2023-05-19T22:16:30.980Z,10.10
2023-05-19T22:18:57.847Z,10.10
2023-05-19T22:21:24.584Z,10.10
2023-05-19T22:23:52.134Z,10.00
2023-05-19T22:26:18.815Z,9.90
2023-05-19T22:28:45.435Z,9.80
2023-05-19T22:31:12.375Z,9.80
2023-05-19T22:33:40.037Z,9.80
2023-05-19T22:36:06.997Z,9.80
2023-05-19T22:38:33.638Z,9.70
2023-05-19T22:41:00.449Z,9.60
2023-05-19T22:43:27.105Z,9.50
2023-05-19T22:45:53.835Z,9.40
2023-05-19T22:48:20.442Z,9.40
2023-05-19T22:50:47.133Z,9.40
2023-05-19T22:53:13.833Z,9.40
2023-05-19T22:55:40.679Z,9.30
2023-05-19T22:58:07.330Z,9.20
2023-05-19T23:00:33.987Z,9.20
2023-05-19T23:03:00.691Z,9.20
2023-05-19T23:05:27.447Z,9.20
2023-05-19T23:07:54.200Z,9.10
2023-05-19T23:10:21.001Z,9.10
2023-05-19T23:12:48.742Z,9.10
2023-05-19T23:15:15.650Z,9.00
2023-05-19T23:17:42.304Z,9.00
2023-05-19T23:20:09.527Z,9.00
2023-05-19T23:22:36.243Z,9.10
2023-05-19T23:25:07.418Z,9.10
2023-05-19T23:27:35.568Z,8.90
2023-05-19T23:30:03.030Z,8.90
2023-05-19T23:32:29.872Z,8.90
2023-05-19T23:34:56.563Z,8.80
2023-05-19T23:37:23.267Z,8.80
2023-05-19T23:39:49.943Z,8.80
2023-05-19T23:42:16.710Z,8.80
2023-05-19T23:44:43.464Z,8.80
2023-05-19T23:47:10.183Z,8.70
2023-05-19T23:49:36.932Z,8.70
2023-05-19T23:52:03.712Z,8.50
2023-05-19T23:54:31.002Z,8.40
2023-05-19T23:56:58.412Z,8.40
2023-05-19T23:59:25.258Z,8.40
